Portada
METAR-TAF:

METAR-TAF

Aeropuertos :

Aeropuerto de Almería

Almería, España

latitud: 36-51N, longitud: 002-23W, altitud: 15 m

Observación

El informe se hizo hace 30 minutos, a las 16:00 UTC
Viento 4 kt del sur
Temperatura 16°C
Humedad 68%
Presión 1029 hPa
Visibilidad 10 km o más
sin nubes por debajo de 1500 m y sin presencia de cumulonimbus.

METAR: LEAM 171600Z 17004KT CAVOK 16/10 Q1029

Hora: 17:30 (16:30 UTC)

Pronóstico

El informe se hizo hace 2 horas y 30 minutos, a las 14:00 UTC
Pronóstico válido del 17 a las 15 UTC al 18 a las 15 UTC
Viento 6 kt del este
Visibilidad 10 km o más
sin nubes por debajo de 1500 m y sin presencia de cumulonimbus.
Probabilidad 40% :
Temporalmente
del 17 a las 20 UTC al 18 a las 10 UTC
Viento 10 kt del norte-noroeste

TAF: LEAM 171400Z 1715/1815 09006KT CAVOK TX16/1814Z TN09/1807Z PROB40 TEMPO 1720/1810 33010KT

Observaciones y pronósticos meteorológicos de más de 4000 aeropuertos (mensajes METAR y TAF).

Los puntos amarillos y rojos representan las estaciones disponibles.

Ponga el ratón en el punto deseado para ver el nombre de la estación.

Haga clic para ver las observaciones y los pronósticos meteorológicos.

Para cambiar el mapa : haga clic en los botones verdes con una cruz de color negro para hacer un zoom, en el botón verde con un guión para alejar o en las flechas verdes para mapas adyacentes.


METAR-TAF: